createdAt,value
2023-05-12T00:01:11.333Z,7.04
2023-05-12T00:03:41.457Z,7.22
2023-05-12T00:06:12.654Z,7.20
2023-05-12T00:08:45.224Z,7.43
2023-05-12T00:11:15.212Z,7.57
2023-05-12T00:13:45.373Z,7.82
2023-05-12T00:16:17.565Z,7.56
2023-05-12T00:18:47.900Z,7.98
2023-05-12T00:21:17.961Z,7.54
2023-05-12T00:23:50.682Z,8.05
2023-05-12T00:26:21.187Z,7.99
2023-05-12T00:28:51.328Z,8.19
2023-05-12T00:31:21.555Z,7.69
2023-05-12T00:33:51.551Z,7.71
2023-05-12T00:36:21.508Z,7.77
2023-05-12T00:38:54.540Z,8.23
2023-05-12T00:41:24.628Z,8.11
2023-05-12T00:43:54.785Z,8.51
2023-05-12T00:46:25.022Z,8.10
2023-05-12T00:48:55.690Z,8.14
2023-05-12T00:51:27.338Z,8.67
2023-05-12T00:54:01.258Z,8.29
2023-05-12T00:56:35.431Z,8.37
2023-05-12T00:59:06.181Z,8.20
2023-05-12T01:01:38.055Z,8.31
2023-05-12T01:04:08.914Z,8.25
2023-05-12T01:06:46.433Z,7.69
2023-05-12T01:09:20.237Z,7.93
2023-05-12T01:11:50.401Z,8.38
2023-05-12T01:14:21.850Z,8.37
2023-05-12T01:16:55.733Z,8.69
2023-05-12T01:19:41.433Z,8.54
2023-05-12T01:22:14.844Z,8.71
2023-05-12T01:24:51.100Z,8.37
2023-05-12T01:27:26.398Z,8.74
2023-05-12T01:30:01.083Z,8.95
2023-05-12T01:32:34.063Z,8.72
2023-05-12T01:35:04.040Z,10.41
2023-05-12T01:37:36.051Z,10.41
2023-05-12T01:40:09.029Z,12.03
2023-05-12T01:42:42.994Z,12.43
2023-05-12T01:45:14.743Z,12.75
2023-05-12T01:47:44.914Z,12.24
2023-05-12T01:50:15.148Z,12.90
2023-05-12T01:52:46.401Z,13.10
2023-05-12T01:55:18.633Z,13.04
2023-05-12T01:57:56.436Z,12.24
2023-05-12T02:00:27.369Z,12.19
2023-05-12T02:02:59.851Z,11.89
2023-05-12T02:05:29.962Z,12.14
2023-05-12T02:08:00.162Z,11.56
2023-05-12T02:10:30.642Z,11.34
2023-05-12T02:13:03.236Z,11.75
2023-05-12T02:15:34.955Z,11.26
2023-05-12T02:18:05.136Z,11.15
2023-05-12T02:20:35.517Z,11.47
2023-05-12T02:23:05.924Z,11.48
2023-05-12T02:25:36.799Z,11.63
2023-05-12T02:28:11.093Z,10.90
2023-05-12T02:30:48.792Z,11.03
2023-05-12T02:33:19.268Z,10.95
2023-05-12T02:35:49.776Z,11.29
2023-05-12T02:38:19.924Z,10.47
2023-05-12T02:40:50.276Z,10.95
2023-05-12T02:43:23.040Z,11.07
2023-05-12T02:45:53.201Z,11.44
2023-05-12T02:48:23.775Z,11.16
2023-05-12T02:50:53.966Z,10.53
2023-05-12T02:53:23.942Z,11.00
2023-05-12T02:55:53.944Z,10.54
2023-05-12T02:58:26.636Z,10.42
2023-05-12T03:01:06.663Z,10.71
2023-05-12T03:03:39.743Z,10.61
2023-05-12T03:06:10.428Z,11.07
2023-05-12T03:08:40.524Z,11.21
2023-05-12T03:11:10.733Z,11.39
2023-05-12T03:13:43.259Z,10.71
2023-05-12T03:16:13.210Z,10.88
2023-05-12T03:18:43.741Z,11.29
2023-05-12T03:21:14.466Z,10.98
2023-05-12T03:23:44.761Z,11.07
2023-05-12T03:26:14.715Z,10.98
2023-05-12T03:28:47.332Z,11.07
2023-05-12T03:31:17.270Z,11.25
2023-05-12T03:33:47.379Z,11.90
2023-05-12T03:36:17.402Z,11.67
2023-05-12T03:38:47.383Z,12.01
2023-05-12T03:41:17.315Z,12.04
2023-05-12T03:43:50.086Z,11.67
2023-05-12T03:46:20.068Z,11.25
2023-05-12T03:48:50.096Z,11.75
2023-05-12T03:51:20.089Z,12.55
2023-05-12T03:53:50.122Z,12.83
2023-05-12T03:56:20.298Z,12.84
2023-05-12T03:58:53.451Z,12.34
2023-05-12T04:01:23.738Z,11.83
2023-05-12T04:03:53.900Z,11.64
2023-05-12T04:06:24.190Z,11.38
2023-05-12T04:08:54.084Z,9.94
2023-05-12T04:11:24.010Z,9.22
2023-05-12T04:13:56.962Z,9.35
2023-05-12T04:16:27.030Z,8.80
2023-05-12T04:18:57.601Z,8.57
2023-05-12T04:21:27.688Z,8.25
2023-05-12T04:23:58.047Z,8.14
2023-05-12T04:26:30.384Z,8.47
2023-05-12T04:29:02.987Z,7.99
2023-05-12T04:31:33.004Z,7.86
2023-05-12T04:34:03.740Z,7.99
2023-05-12T04:36:34.820Z,7.52
2023-05-12T04:39:05.534Z,7.64
2023-05-12T04:41:36.590Z,7.76
2023-05-12T04:44:09.682Z,7.69
2023-05-12T04:46:39.676Z,7.20
2023-05-12T04:49:09.740Z,7.09
2023-05-12T04:51:43.029Z,7.17
2023-05-12T04:54:13.520Z,6.93
2023-05-12T04:56:43.654Z,7.24
2023-05-12T04:59:18.437Z,7.29
2023-05-12T05:01:51.299Z,6.89
2023-05-12T05:04:21.525Z,7.27
2023-05-12T05:06:52.042Z,7.35
2023-05-12T05:09:22.571Z,7.29
2023-05-12T05:11:52.933Z,7.56
2023-05-12T05:14:26.134Z,7.19
2023-05-12T05:16:57.203Z,6.94
2023-05-12T05:19:39.131Z,7.00
2023-05-12T05:22:14.946Z,7.13
2023-05-12T05:24:45.281Z,7.44
2023-05-12T05:27:15.520Z,7.32
2023-05-12T05:29:49.509Z,6.72
2023-05-12T05:32:22.811Z,6.92
2023-05-12T05:34:52.874Z,7.32
2023-05-12T05:37:22.950Z,7.42
2023-05-12T05:39:53.160Z,7.10
2023-05-12T05:42:23.119Z,6.52
2023-05-12T05:44:56.165Z,6.15
2023-05-12T05:47:28.396Z,6.06
2023-05-12T05:49:58.373Z,5.42
2023-05-12T05:52:28.439Z,5.65
2023-05-12T05:54:58.466Z,5.48
2023-05-12T05:57:30.701Z,5.36
2023-05-12T06:00:05.313Z,5.49
2023-05-12T06:02:44.553Z,5.44
2023-05-12T06:05:18.763Z,5.07
2023-05-12T06:07:48.860Z,4.94
2023-05-12T06:10:19.045Z,5.22
2023-05-12T06:12:50.513Z,5.38
2023-05-12T06:15:26.090Z,5.32
2023-05-12T06:17:56.146Z,5.06
2023-05-12T06:20:26.476Z,4.84
2023-05-12T06:22:56.481Z,4.38
2023-05-12T06:25:27.117Z,3.95
2023-05-12T06:27:57.112Z,3.61
2023-05-12T06:30:29.825Z,2.99
2023-05-12T06:32:59.826Z,3.43
2023-05-12T06:35:31.004Z,3.21
2023-05-12T06:38:01.080Z,3.28
2023-05-12T06:40:31.060Z,3.16
2023-05-12T06:43:01.120Z,3.54
2023-05-12T06:45:33.707Z,4.07
2023-05-12T06:48:06.152Z,4.09
2023-05-12T06:50:36.220Z,4.35
2023-05-12T06:53:08.118Z,4.21
2023-05-12T06:55:38.093Z,4.46
2023-05-12T06:58:08.014Z,4.45
2023-05-12T07:00:40.583Z,4.50
2023-05-12T07:03:10.873Z,4.68
2023-05-12T07:05:41.457Z,4.91
2023-05-12T07:08:14.603Z,4.97
2023-05-12T07:10:44.778Z,5.27
2023-05-12T07:13:14.834Z,4.93
2023-05-12T07:15:48.125Z,4.95
2023-05-12T07:18:18.033Z,5.20
2023-05-12T07:20:49.298Z,5.50
2023-05-12T07:23:19.382Z,5.29
2023-05-12T07:25:49.555Z,5.02
2023-05-12T07:28:19.686Z,5.34
2023-05-12T07:30:52.509Z,5.35
2023-05-12T07:33:22.718Z,5.41
2023-05-12T07:35:52.763Z,5.70
2023-05-12T07:38:22.817Z,5.98
2023-05-12T07:40:52.862Z,5.85
2023-05-12T07:43:22.861Z,6.33
2023-05-12T07:45:56.273Z,6.43
2023-05-12T07:48:26.233Z,5.92
2023-05-12T07:50:56.231Z,5.85
2023-05-12T07:53:26.240Z,6.14
2023-05-12T07:55:56.381Z,5.96
2023-05-12T07:58:26.452Z,5.71
2023-05-12T08:01:00.384Z,5.86
2023-05-12T08:03:30.458Z,5.62
2023-05-12T08:06:00.501Z,5.51
2023-05-12T08:08:30.470Z,5.99
2023-05-12T08:11:00.420Z,5.69
2023-05-12T08:13:30.371Z,5.74
2023-05-12T08:16:02.932Z,5.86
2023-05-12T08:18:32.964Z,5.93
2023-05-12T08:21:02.890Z,6.04
2023-05-12T08:23:32.826Z,6.20
2023-05-12T08:26:02.776Z,5.77
2023-05-12T08:28:33.035Z,5.75
2023-05-12T08:31:06.014Z,5.78
2023-05-12T08:33:38.686Z,6.22
2023-05-12T08:36:09.180Z,5.82
2023-05-12T08:38:39.191Z,6.06
2023-05-12T08:41:18.023Z,5.73
2023-05-12T08:43:52.741Z,5.76
2023-05-12T08:46:26.886Z,6.81
2023-05-12T08:48:58.389Z,7.22
2023-05-12T08:51:30.913Z,7.04
2023-05-12T08:54:01.262Z,7.17
2023-05-12T08:59:06.907Z,5.77
2023-05-12T09:01:43.089Z,6.18
2023-05-12T09:04:13.628Z,5.68
2023-05-12T09:06:44.231Z,5.75
2023-05-12T09:09:16.867Z,5.80
2023-05-12T09:11:47.145Z,5.76
2023-05-12T09:14:25.845Z,5.08
2023-05-12T09:17:04.155Z,5.18
2023-05-12T09:19:35.248Z,5.25
2023-05-12T09:22:05.334Z,4.91
2023-05-12T09:24:37.510Z,4.91
2023-05-12T09:27:08.362Z,4.71
2023-05-12T09:29:45.299Z,4.56
2023-05-12T09:32:20.708Z,4.75
2023-05-12T09:34:54.614Z,5.79
2023-05-12T09:37:34.151Z,6.20
2023-05-12T09:40:04.891Z,4.24
2023-05-12T09:42:36.841Z,4.74
2023-05-12T09:45:09.515Z,3.93
2023-05-12T09:47:44.930Z,3.09
2023-05-12T09:50:14.941Z,2.70
2023-05-12T09:52:45.101Z,2.86
2023-05-12T09:55:15.958Z,3.00
2023-05-12T09:57:47.419Z,2.64
2023-05-12T10:00:36.564Z,3.36
2023-05-12T10:03:17.741Z,4.13
2023-05-12T10:05:52.432Z,4.53
2023-05-12T10:08:27.907Z,4.82
2023-05-12T10:11:00.492Z,6.16
2023-05-12T10:13:31.630Z,7.31
2023-05-12T10:16:02.855Z,5.63
2023-05-12T10:18:36.776Z,4.78
2023-05-12T10:21:07.010Z,4.40
2023-05-12T10:23:38.653Z,4.06
2023-05-12T10:26:09.104Z,3.38
2023-05-12T10:28:39.037Z,2.67
2023-05-12T10:31:10.589Z,3.04
2023-05-12T10:33:43.190Z,3.09
2023-05-12T10:36:20.961Z,2.94
2023-05-12T10:38:52.532Z,2.81
2023-05-12T10:41:33.394Z,2.87
2023-05-12T10:44:04.185Z,3.26
2023-05-12T10:46:34.352Z,3.19
2023-05-12T10:49:12.569Z,2.77
2023-05-12T10:51:51.711Z,2.88
2023-05-12T10:54:23.904Z,2.34
2023-05-12T10:56:55.415Z,2.55
2023-05-12T10:59:28.065Z,2.53
2023-05-12T11:02:05.365Z,2.82
2023-05-12T11:04:44.917Z,2.98
2023-05-12T11:07:17.670Z,2.93
2023-05-12T11:09:58.580Z,3.24
2023-05-12T11:12:33.010Z,3.04
2023-05-12T11:15:04.516Z,2.97
2023-05-12T11:17:36.191Z,2.84
2023-05-12T11:20:10.116Z,2.84
2023-05-12T11:22:40.259Z,2.87
2023-05-12T11:25:14.785Z,2.96
2023-05-12T11:27:50.852Z,2.92
2023-05-12T11:30:20.815Z,2.65
2023-05-12T11:32:51.041Z,3.26
2023-05-12T11:35:24.024Z,2.88
2023-05-12T11:37:53.995Z,2.85
2023-05-12T11:40:25.851Z,2.86
2023-05-12T11:42:56.356Z,2.85
2023-05-12T11:45:29.983Z,2.74
2023-05-12T11:48:11.442Z,2.91
2023-05-12T11:50:47.823Z,3.15
2023-05-12T11:53:20.000Z,3.52
2023-05-12T11:55:51.281Z,3.65
2023-05-12T11:58:26.078Z,3.47
2023-05-12T12:00:57.339Z,3.28
2023-05-12T12:03:27.942Z,3.21
2023-05-12T12:06:06.935Z,2.96
2023-05-12T12:08:40.656Z,3.17
2023-05-12T12:11:11.643Z,2.76
2023-05-12T12:13:41.679Z,3.15
2023-05-12T12:16:13.538Z,3.78
2023-05-12T12:18:44.881Z,3.51
2023-05-12T12:21:18.937Z,3.99
2023-05-12T12:23:51.385Z,3.60
2023-05-12T12:26:23.215Z,3.34
2023-05-12T12:28:53.282Z,3.92
2023-05-12T12:31:23.246Z,3.48
2023-05-12T12:33:53.415Z,3.20
2023-05-12T12:36:26.015Z,3.27
2023-05-12T12:38:55.933Z,2.79
2023-05-12T12:41:25.967Z,2.89
2023-05-12T12:43:55.973Z,2.81
2023-05-12T12:46:25.996Z,2.45
2023-05-12T12:48:57.430Z,2.51
2023-05-12T12:51:44.513Z,2.42
2023-05-12T12:54:15.352Z,2.33
2023-05-12T12:56:46.115Z,2.25
2023-05-12T12:59:16.157Z,2.59
2023-05-12T13:01:46.110Z,2.49
2023-05-12T13:04:17.278Z,2.36
2023-05-12T13:06:49.904Z,2.64
2023-05-12T13:09:20.247Z,2.58
2023-05-12T13:11:50.440Z,3.25
2023-05-12T13:14:21.669Z,3.18
2023-05-12T13:16:52.997Z,3.08
2023-05-12T13:19:23.048Z,3.02
2023-05-12T13:21:55.665Z,3.14
2023-05-12T13:24:25.693Z,3.17
2023-05-12T13:26:55.687Z,3.52
2023-05-12T13:29:25.603Z,3.30
2023-05-12T13:31:55.744Z,3.71
2023-05-12T13:34:26.062Z,4.05
2023-05-12T13:36:59.261Z,4.49
2023-05-12T13:39:29.356Z,5.24
2023-05-12T13:42:00.000Z,5.49
2023-05-12T13:44:30.136Z,5.42
2023-05-12T13:47:00.273Z,5.53
2023-05-12T13:49:30.260Z,5.70
2023-05-12T13:52:02.946Z,4.93
2023-05-12T13:54:34.247Z,5.15
2023-05-12T13:57:04.751Z,4.61
2023-05-12T13:59:35.256Z,5.06
2023-05-12T14:02:05.708Z,5.02
2023-05-12T14:04:35.702Z,4.94
2023-05-12T14:07:09.011Z,4.82
2023-05-12T14:09:38.988Z,5.01
2023-05-12T14:12:10.106Z,5.06
2023-05-12T14:14:40.059Z,5.89
2023-05-12T14:17:10.101Z,6.15
2023-05-12T14:19:40.000Z,6.16
2023-05-12T14:22:22.323Z,6.16
2023-05-12T14:24:56.303Z,6.13
2023-05-12T14:27:26.379Z,5.58
2023-05-12T14:29:56.357Z,5.57
2023-05-12T14:32:26.408Z,5.42
2023-05-12T14:34:56.360Z,5.63
2023-05-12T14:37:28.840Z,5.61
2023-05-12T14:39:58.860Z,4.90
2023-05-12T14:42:30.323Z,5.47
2023-05-12T14:45:00.285Z,4.70
2023-05-12T14:47:30.335Z,4.74
2023-05-12T14:50:00.290Z,4.91
2023-05-12T14:52:38.419Z,5.09
2023-05-12T14:55:12.212Z,4.84
2023-05-12T14:57:43.105Z,5.14
2023-05-12T15:00:16.182Z,4.73
2023-05-12T15:02:47.859Z,4.23
2023-05-12T15:05:18.246Z,4.10
2023-05-12T15:07:50.862Z,3.94
2023-05-12T15:10:20.998Z,3.84
2023-05-12T15:12:51.064Z,4.32
2023-05-12T15:15:21.332Z,4.20
2023-05-12T15:17:51.655Z,3.97
2023-05-12T15:20:21.914Z,3.93
2023-05-12T15:22:55.162Z,3.93
2023-05-12T15:25:25.180Z,4.26
2023-05-12T15:27:55.169Z,4.26
2023-05-12T15:30:25.306Z,4.26
2023-05-12T15:32:55.350Z,4.46
2023-05-12T15:35:27.209Z,4.39
2023-05-12T15:37:59.717Z,4.56
2023-05-12T15:40:30.966Z,4.79
2023-05-12T15:43:01.366Z,4.76
2023-05-12T15:45:31.565Z,4.82
2023-05-12T15:48:01.632Z,4.98
2023-05-12T15:50:31.622Z,4.53
2023-05-12T15:53:04.121Z,4.87
2023-05-12T15:55:34.115Z,5.04
2023-05-12T15:58:05.538Z,5.03
2023-05-12T16:00:35.635Z,5.04
2023-05-12T16:03:05.787Z,5.15
2023-05-12T16:05:38.122Z,4.98
2023-05-12T16:08:10.617Z,5.02
2023-05-12T16:10:41.144Z,5.01
2023-05-12T16:13:11.154Z,5.04
2023-05-12T16:15:41.119Z,5.11
2023-05-12T16:18:11.711Z,5.21
2023-05-12T16:20:41.984Z,5.71
2023-05-12T16:23:14.497Z,5.23
2023-05-12T16:25:44.779Z,5.49
2023-05-12T16:28:14.816Z,5.37
2023-05-12T16:30:45.267Z,4.96
2023-05-12T16:33:15.939Z,5.22
2023-05-12T16:35:45.890Z,4.99
2023-05-12T16:38:18.427Z,4.72
2023-05-12T16:40:48.486Z,5.08
2023-05-12T16:43:18.396Z,4.70
2023-05-12T16:45:48.469Z,4.91
2023-05-12T16:48:19.207Z,4.95
2023-05-12T16:50:49.119Z,4.05
2023-05-12T16:53:21.914Z,3.31
2023-05-12T16:55:51.873Z,3.01
2023-05-12T16:58:21.778Z,3.05
2023-05-12T17:00:51.941Z,3.21
2023-05-12T17:03:22.971Z,2.82
2023-05-12T17:05:53.145Z,2.92
2023-05-12T17:08:25.941Z,3.23
2023-05-12T17:10:56.028Z,3.10
2023-05-12T17:13:26.086Z,3.17
2023-05-12T17:15:56.602Z,3.32
2023-05-12T17:18:26.972Z,3.25
2023-05-12T17:20:56.940Z,2.98
2023-05-12T17:23:29.622Z,2.82
2023-05-12T17:25:59.665Z,3.05
2023-05-12T17:28:29.876Z,2.92
2023-05-12T17:31:01.512Z,3.00
2023-05-12T17:33:31.682Z,3.00
2023-05-12T17:36:12.165Z,2.91
2023-05-12T17:38:45.750Z,3.09
2023-05-12T17:41:16.378Z,3.33
2023-05-12T17:43:46.402Z,4.28
2023-05-12T17:46:16.871Z,4.12
2023-05-12T17:48:46.872Z,3.96
2023-05-12T17:51:17.086Z,3.82
2023-05-12T17:53:49.604Z,2.78
2023-05-12T17:56:19.605Z,2.55
2023-05-12T17:58:49.856Z,2.64
2023-05-12T18:01:19.943Z,2.80
2023-05-12T18:03:50.085Z,3.02
2023-05-12T18:06:20.335Z,3.07
2023-05-12T18:08:53.337Z,2.82
2023-05-12T18:11:23.386Z,2.72
2023-05-12T18:13:53.936Z,2.55
2023-05-12T18:16:29.195Z,3.77
2023-05-12T18:18:59.595Z,2.74
2023-05-12T18:21:29.674Z,2.42
2023-05-12T18:24:02.268Z,2.60
2023-05-12T18:26:32.870Z,2.51
2023-05-12T18:29:02.913Z,2.78
2023-05-12T18:31:32.891Z,2.45
2023-05-12T18:34:02.956Z,2.55
2023-05-12T18:36:32.956Z,2.88
2023-05-12T18:39:06.778Z,3.56
2023-05-12T18:41:36.772Z,3.83
2023-05-12T18:44:08.904Z,3.04
2023-05-12T18:46:39.175Z,2.96
2023-05-12T18:49:10.311Z,2.48
2023-05-12T18:51:49.818Z,2.68
2023-05-12T18:54:29.041Z,2.89
2023-05-12T18:56:59.268Z,2.83
2023-05-12T18:59:29.407Z,2.63
2023-05-12T19:01:59.618Z,2.70
2023-05-12T19:04:29.869Z,2.76
2023-05-12T19:07:00.002Z,2.95
2023-05-12T19:09:32.769Z,3.79
2023-05-12T19:12:03.825Z,3.23
2023-05-12T19:14:34.895Z,2.85
2023-05-12T19:17:04.944Z,2.83
2023-05-12T19:19:35.100Z,3.07
2023-05-12T19:22:05.664Z,2.73
2023-05-12T19:24:38.522Z,2.73
2023-05-12T19:27:11.133Z,2.46
2023-05-12T19:29:42.350Z,2.37
2023-05-12T19:32:13.486Z,2.45
2023-05-12T19:34:43.661Z,2.32
2023-05-12T19:37:13.832Z,2.34
2023-05-12T19:39:46.395Z,2.29
2023-05-12T19:42:16.449Z,2.32
2023-05-12T19:44:46.558Z,2.19
2023-05-12T19:47:16.708Z,2.15
2023-05-12T19:49:46.702Z,2.17
2023-05-12T19:52:16.850Z,2.06
2023-05-12T19:54:49.703Z,2.08
2023-05-12T19:57:20.046Z,2.47
2023-05-12T19:59:50.137Z,2.16
2023-05-12T20:02:20.940Z,2.31
2023-05-12T20:04:50.975Z,2.61
2023-05-12T20:07:21.029Z,2.09
2023-05-12T20:09:53.656Z,2.28
2023-05-12T20:12:23.722Z,2.26
2023-05-12T20:14:53.626Z,2.56
2023-05-12T20:17:23.655Z,2.17
2023-05-12T20:19:53.803Z,2.30
2023-05-12T20:22:24.270Z,2.07
2023-05-12T20:24:59.644Z,2.18
2023-05-12T20:27:29.696Z,2.36
2023-05-12T20:29:59.776Z,2.53
2023-05-12T20:32:29.817Z,2.86
2023-05-12T20:34:59.910Z,2.48
2023-05-12T20:37:29.950Z,3.02
2023-05-12T20:40:02.688Z,2.49
2023-05-12T20:42:32.672Z,2.64
2023-05-12T20:45:02.648Z,2.35
2023-05-12T20:47:33.617Z,2.38
2023-05-12T20:50:05.735Z,2.39
2023-05-12T20:52:35.908Z,2.51
2023-05-12T20:55:09.883Z,2.67
2023-05-12T20:57:40.320Z,3.05
2023-05-12T21:00:11.965Z,2.87
2023-05-12T21:02:42.683Z,2.78
2023-05-12T21:05:12.735Z,3.14
2023-05-12T21:07:42.757Z,2.81
2023-05-12T21:10:15.497Z,2.71
2023-05-12T21:12:45.516Z,2.80
2023-05-12T21:15:15.769Z,2.49
2023-05-12T21:17:45.817Z,2.85
2023-05-12T21:20:16.077Z,2.88
2023-05-12T21:22:46.100Z,3.15
2023-05-12T21:25:18.752Z,2.82
2023-05-12T21:27:48.658Z,2.70
2023-05-12T21:30:18.881Z,2.73
2023-05-12T21:32:49.110Z,2.77
2023-05-12T21:35:19.218Z,2.88
2023-05-12T21:37:49.686Z,2.93
2023-05-12T21:40:22.552Z,2.88
2023-05-12T21:42:52.750Z,2.68
2023-05-12T21:45:23.031Z,2.64
2023-05-12T21:47:53.321Z,2.62
2023-05-12T21:50:23.683Z,2.44
2023-05-12T21:52:53.689Z,2.88
2023-05-12T21:55:26.559Z,3.18
2023-05-12T21:57:56.707Z,2.87
2023-05-12T22:00:27.025Z,3.14
2023-05-12T22:02:57.089Z,2.89
2023-05-12T22:05:27.331Z,2.72
2023-05-12T22:07:57.473Z,2.79
2023-05-12T22:10:30.611Z,2.79
2023-05-12T22:13:00.578Z,2.85
2023-05-12T22:15:30.857Z,2.73
2023-05-12T22:18:00.895Z,2.71
2023-05-12T22:20:31.016Z,2.75
2023-05-12T22:23:01.057Z,2.69
2023-05-12T22:25:33.705Z,2.72
2023-05-12T22:28:04.853Z,2.96
2023-05-12T22:30:36.588Z,2.86
2023-05-12T22:33:06.801Z,2.79
2023-05-12T22:35:36.990Z,2.86
2023-05-12T22:38:07.023Z,2.98
2023-05-12T22:40:39.553Z,2.97
2023-05-12T22:43:09.782Z,3.17
2023-05-12T22:45:39.771Z,3.03
2023-05-12T22:48:09.703Z,2.81
2023-05-12T22:50:39.657Z,2.97
2023-05-12T22:53:09.685Z,2.93
2023-05-12T22:55:42.263Z,2.87
2023-05-12T22:58:12.727Z,3.13
2023-05-12T23:00:42.686Z,2.99
2023-05-12T23:03:12.667Z,2.96
2023-05-12T23:05:42.650Z,3.06
2023-05-12T23:08:12.608Z,3.31
2023-05-12T23:10:45.126Z,3.09
2023-05-12T23:13:15.025Z,3.14
2023-05-12T23:15:44.991Z,3.09
2023-05-12T23:18:14.909Z,3.08
2023-05-12T23:20:44.813Z,3.01
2023-05-12T23:23:14.798Z,3.15
2023-05-12T23:25:47.301Z,3.06
2023-05-12T23:28:17.249Z,3.37
2023-05-12T23:30:47.191Z,3.49
2023-05-12T23:33:17.394Z,3.52
2023-05-12T23:35:47.505Z,3.67
2023-05-12T23:38:17.483Z,3.75
2023-05-12T23:40:50.303Z,3.94
2023-05-12T23:43:20.251Z,4.28
2023-05-12T23:45:50.465Z,4.61
2023-05-12T23:48:20.462Z,5.16
2023-05-12T23:50:50.527Z,5.26
2023-05-12T23:53:20.535Z,5.22
2023-05-12T23:55:53.068Z,5.12
2023-05-12T23:58:23.027Z,4.82
